createdAt,value
2023-02-02T00:03:59.555Z,96.67
2023-02-02T00:09:02.948Z,97.32
2023-02-02T00:14:04.915Z,97.74
2023-02-02T00:19:15.499Z,98.27
2023-02-02T00:24:18.202Z,98.70
2023-02-02T00:29:22.382Z,99.13
2023-02-02T00:34:24.789Z,99.46
2023-02-02T00:39:26.542Z,99.35
2023-02-02T00:44:48.081Z,98.98
2023-02-02T00:49:49.763Z,98.83
2023-02-02T00:54:51.352Z,98.50
2023-02-02T00:59:52.982Z,98.05
2023-02-02T01:04:54.656Z,97.71
2023-02-02T01:09:56.377Z,97.93
2023-02-02T01:14:58.301Z,98.09
2023-02-02T01:20:00.190Z,97.94
2023-02-02T01:25:02.211Z,97.53
2023-02-02T01:30:04.511Z,97.07
2023-02-02T01:35:06.536Z,96.50
2023-02-02T01:40:09.077Z,95.65
2023-02-02T01:45:13.658Z,94.85
2023-02-02T01:50:17.269Z,94.06
2023-02-02T01:55:23.941Z,94.12
2023-02-02T02:00:27.888Z,94.19
2023-02-02T02:05:38.155Z,93.38
2023-02-02T02:10:40.270Z,93.92
2023-02-02T02:16:11.676Z,94.76
2023-02-02T02:21:44.802Z,93.50
2023-02-02T02:26:56.253Z,92.42
2023-02-02T02:32:03.848Z,91.43
2023-02-02T02:37:39.341Z,90.63
2023-02-02T02:42:46.699Z,90.13
2023-02-02T02:47:50.259Z,90.26
2023-02-02T02:53:08.080Z,90.24
2023-02-02T02:58:20.764Z,91.18
2023-02-02T03:03:33.658Z,91.74
2023-02-02T03:08:54.329Z,91.89
2023-02-02T03:13:56.853Z,93.07
2023-02-02T03:18:58.614Z,93.20
2023-02-02T03:24:00.673Z,93.46
2023-02-02T03:29:03.319Z,93.57
2023-02-02T03:34:05.115Z,93.97
2023-02-02T03:39:06.786Z,94.05
2023-02-02T03:44:08.474Z,94.01
2023-02-02T03:49:10.786Z,92.58
2023-02-02T03:54:12.764Z,92.06
2023-02-02T03:59:14.483Z,92.29
2023-02-02T04:04:16.477Z,91.59
2023-02-02T04:09:18.268Z,91.19
2023-02-02T04:14:20.326Z,90.65
2023-02-02T04:19:22.222Z,91.47
2023-02-02T04:24:24.042Z,91.16
2023-02-02T04:29:26.382Z,91.70
2023-02-02T04:34:28.196Z,91.34
2023-02-02T04:39:31.151Z,91.91
2023-02-02T04:44:32.907Z,92.18
2023-02-02T04:49:34.554Z,92.16
2023-02-02T04:54:36.157Z,92.25
2023-02-02T04:59:39.099Z,92.87
2023-02-02T05:04:41.648Z,92.88
2023-02-02T05:09:43.323Z,92.88
2023-02-02T05:14:45.241Z,93.06
2023-02-02T05:19:46.883Z,93.20
2023-02-02T05:24:48.681Z,92.85
2023-02-02T05:29:50.324Z,92.54
2023-02-02T05:34:51.933Z,92.34
2023-02-02T05:39:53.760Z,91.09
2023-02-02T05:44:55.547Z,89.77
2023-02-02T05:49:57.183Z,88.63
2023-02-02T05:55:03.296Z,88.31
2023-02-02T06:00:05.709Z,88.25
2023-02-02T06:05:13.927Z,87.77
2023-02-02T06:10:15.957Z,87.47
2023-02-02T06:15:18.422Z,87.24
2023-02-02T06:20:22.265Z,87.14
2023-02-02T06:25:24.561Z,86.92
2023-02-02T06:30:27.326Z,87.03
2023-02-02T06:35:29.126Z,86.45
2023-02-02T06:40:30.978Z,86.49
2023-02-02T06:45:32.634Z,86.90
2023-02-02T06:50:34.259Z,87.18
2023-02-02T06:55:35.999Z,87.48
2023-02-02T07:00:38.315Z,88.29
2023-02-02T07:05:40.418Z,88.90
2023-02-02T07:11:09.465Z,89.83
2023-02-02T07:16:07.118Z,89.91
2023-02-02T07:21:15.462Z,89.58
2023-02-02T07:26:19.290Z,89.34
2023-02-02T07:31:23.892Z,89.42
2023-02-02T07:36:26.013Z,89.32
2023-02-02T07:41:27.934Z,89.57
2023-02-02T07:46:29.843Z,89.41
2023-02-02T07:51:31.515Z,89.60
2023-02-02T07:56:33.390Z,89.74
2023-02-02T08:01:38.118Z,89.14
2023-02-02T08:06:41.471Z,86.47
2023-02-02T08:11:43.233Z,86.29
2023-02-02T08:16:45.643Z,84.04
2023-02-02T08:21:47.243Z,84.69
2023-02-02T08:26:48.923Z,84.78
2023-02-02T08:31:50.694Z,85.30
2023-02-02T08:36:52.507Z,84.28
2023-02-02T08:41:57.030Z,84.12
2023-02-02T08:46:59.078Z,84.23
2023-02-02T08:52:00.827Z,83.99
2023-02-02T08:57:02.466Z,84.92
2023-02-02T09:02:04.222Z,85.06
2023-02-02T09:07:06.155Z,84.74
2023-02-02T09:12:08.138Z,84.46
2023-02-02T09:17:09.742Z,84.92
2023-02-02T09:22:11.364Z,83.59
2023-02-02T09:27:13.002Z,84.55
2023-02-02T09:32:14.904Z,84.42
2023-02-02T09:37:16.565Z,84.60
2023-02-02T09:42:49.174Z,84.30
2023-02-02T09:47:58.455Z,83.48
2023-02-02T09:53:19.125Z,84.05
2023-02-02T09:58:34.151Z,83.61
2023-02-02T10:03:47.798Z,84.00
2023-02-02T10:08:54.974Z,83.54
2023-02-02T10:14:02.932Z,83.75
2023-02-02T10:19:09.689Z,83.76
2023-02-02T10:24:23.900Z,81.10
2023-02-02T10:29:25.450Z,81.98
2023-02-02T10:34:37.756Z,80.70
2023-02-02T10:40:22.432Z,79.46
2023-02-02T10:45:24.304Z,79.37
2023-02-02T10:50:27.797Z,78.86
2023-02-02T10:55:44.302Z,78.18
2023-02-02T11:00:51.200Z,78.82
2023-02-02T11:06:11.780Z,78.06
2023-02-02T11:11:24.919Z,78.02
2023-02-02T11:16:43.235Z,78.08
2023-02-02T11:21:48.649Z,78.06
2023-02-02T11:27:15.521Z,77.95
2023-02-02T11:32:25.252Z,77.36
2023-02-02T11:37:26.904Z,77.43
2023-02-02T11:42:29.069Z,78.46
2023-02-02T11:47:33.298Z,79.02
2023-02-02T11:52:36.066Z,79.40
2023-02-02T11:57:37.755Z,79.68
2023-02-02T12:02:47.416Z,80.39
2023-02-02T12:07:49.480Z,80.25
2023-02-02T12:13:09.618Z,80.61
2023-02-02T12:18:36.279Z,80.70
2023-02-02T12:24:13.899Z,80.60
2023-02-02T12:29:31.512Z,80.81
2023-02-02T12:34:59.631Z,80.55
2023-02-02T12:40:26.536Z,79.49
2023-02-02T12:45:40.962Z,79.75
2023-02-02T12:50:57.545Z,79.53
2023-02-02T12:56:17.505Z,79.63
2023-02-02T13:01:27.957Z,79.24
2023-02-02T13:07:11.863Z,79.34
2023-02-02T13:12:16.970Z,79.03
2023-02-02T13:17:27.104Z,78.88
2023-02-02T13:22:35.872Z,79.09
2023-02-02T13:27:38.998Z,78.91
2023-02-02T13:32:45.216Z,79.74
2023-02-02T13:38:05.088Z,79.76
2023-02-02T13:43:32.459Z,80.17
2023-02-02T13:48:40.171Z,80.59
2023-02-02T13:53:44.691Z,80.08
2023-02-02T13:58:58.750Z,80.59
2023-02-02T14:04:01.254Z,80.93
2023-02-02T14:09:05.832Z,80.76
2023-02-02T14:14:32.286Z,80.85
2023-02-02T14:19:42.185Z,80.98
2023-02-02T14:24:50.201Z,81.49
2023-02-02T14:29:54.617Z,81.41
2023-02-02T14:35:08.425Z,80.77
2023-02-02T14:40:10.016Z,81.08
2023-02-02T14:45:11.634Z,81.42
2023-02-02T14:50:17.793Z,81.07
2023-02-02T14:55:21.255Z,81.84
2023-02-02T15:00:28.210Z,83.11
2023-02-02T15:05:30.744Z,82.64
2023-02-02T15:10:53.576Z,83.08
2023-02-02T15:16:19.445Z,83.27
2023-02-02T15:21:23.801Z,83.27
2023-02-02T15:26:35.708Z,83.36
2023-02-02T15:31:46.877Z,83.45
2023-02-02T15:36:55.342Z,83.70
2023-02-02T15:42:18.969Z,83.90
2023-02-02T15:47:33.188Z,84.25
2023-02-02T15:52:38.058Z,84.49
2023-02-02T15:57:44.925Z,84.48
2023-02-02T16:02:51.242Z,85.05
2023-02-02T16:08:04.960Z,85.23
2023-02-02T16:13:07.694Z,85.70
2023-02-02T16:18:18.453Z,85.64
2023-02-02T16:23:28.879Z,86.14
2023-02-02T16:28:31.735Z,86.03
2023-02-02T16:33:40.877Z,86.03
2023-02-02T16:38:42.781Z,85.96
2023-02-02T16:43:44.525Z,85.90
2023-02-02T16:48:59.129Z,85.78
2023-02-02T16:54:06.812Z,85.25
2023-02-02T16:59:14.320Z,85.11
2023-02-02T17:04:25.986Z,85.08
2023-02-02T17:09:34.056Z,84.64
2023-02-02T17:14:37.466Z,84.01
2023-02-02T17:19:39.141Z,84.05
2023-02-02T17:24:44.056Z,84.32
2023-02-02T17:29:46.221Z,83.97
2023-02-02T17:34:47.851Z,84.61
2023-02-02T17:39:50.771Z,84.57
2023-02-02T17:44:52.727Z,84.65
2023-02-02T17:49:54.853Z,84.59
2023-02-02T17:54:56.719Z,84.52
2023-02-02T17:59:58.414Z,84.78
2023-02-02T18:05:01.720Z,84.80
2023-02-02T18:10:05.220Z,85.21
2023-02-02T18:15:11.247Z,85.16
2023-02-02T18:20:17.391Z,84.81
2023-02-02T18:25:19.241Z,85.07
2023-02-02T18:30:21.144Z,84.90
2023-02-02T18:35:22.941Z,85.14
2023-02-02T18:40:24.885Z,84.72
2023-02-02T18:45:26.901Z,85.01
2023-02-02T18:50:28.799Z,84.70
2023-02-02T18:55:30.421Z,84.75
2023-02-02T19:00:34.174Z,85.03
2023-02-02T19:05:57.394Z,84.84
2023-02-02T19:11:01.995Z,84.65
2023-02-02T19:16:14.536Z,84.75
2023-02-02T19:21:16.550Z,84.56
2023-02-02T19:26:24.611Z,84.49
2023-02-02T19:31:26.421Z,84.49
2023-02-02T19:36:29.122Z,84.08
2023-02-02T19:41:31.079Z,83.83
2023-02-02T19:46:41.665Z,83.65
2023-02-02T19:51:56.218Z,83.81
2023-02-02T19:57:22.247Z,83.68
2023-02-02T20:02:43.957Z,83.90
2023-02-02T20:07:46.275Z,84.01
2023-02-02T20:12:48.040Z,84.03
2023-02-02T20:17:50.039Z,83.95
2023-02-02T20:22:51.729Z,83.73
2023-02-02T20:27:53.866Z,83.96
2023-02-02T20:32:58.618Z,83.47
2023-02-02T20:38:00.471Z,83.75
2023-02-02T20:43:03.338Z,84.27
2023-02-02T20:48:07.426Z,84.37
2023-02-02T20:53:13.614Z,84.81
2023-02-02T20:58:15.719Z,84.59
2023-02-02T21:03:17.599Z,84.92
2023-02-02T21:08:19.428Z,84.74
2023-02-02T21:13:21.336Z,84.79
2023-02-02T21:18:23.117Z,85.22
2023-02-02T21:23:24.873Z,85.18
2023-02-02T21:28:26.664Z,84.54
2023-02-02T21:33:28.351Z,84.20
2023-02-02T21:38:30.705Z,84.10
2023-02-02T21:43:32.991Z,83.88
2023-02-02T21:48:36.503Z,84.15
2023-02-02T21:53:38.376Z,84.12
2023-02-02T21:58:40.300Z,84.55
2023-02-02T22:03:47.877Z,83.83
2023-02-02T22:08:50.821Z,83.85
2023-02-02T22:13:53.498Z,83.59
2023-02-02T22:18:55.507Z,83.69
2023-02-02T22:23:57.363Z,83.57
2023-02-02T22:28:59.334Z,83.78
2023-02-02T22:34:01.237Z,83.53
2023-02-02T22:39:03.076Z,83.82
2023-02-02T22:44:06.125Z,83.86
2023-02-02T22:49:07.916Z,83.34
2023-02-02T22:54:09.588Z,83.93
2023-02-02T22:59:11.188Z,83.88
2023-02-02T23:04:13.039Z,83.98
2023-02-02T23:09:14.736Z,83.80
2023-02-02T23:14:16.360Z,84.08
2023-02-02T23:19:17.954Z,84.21
2023-02-02T23:24:19.604Z,84.07
2023-02-02T23:29:21.242Z,84.83
2023-02-02T23:34:22.855Z,84.39
2023-02-02T23:39:24.772Z,84.42
2023-02-02T23:44:26.599Z,84.57
2023-02-02T23:49:28.445Z,84.95
2023-02-02T23:54:30.661Z,84.99
2023-02-02T23:59:32.469Z,85.26
